EDHI/XFW METAR and TAF weather

Enter ICAO airport designator
Station Type Date Time Source
EDHI METAR 2021/09/27 08:20 UTC NOAA

EDHI 270820Z 17003KT 120V220 4500 BR BKN008 18/18 Q1014


Station Type Date Time Source
EDHI Decoded METAR 2021/09/27 08:20 UTC NOAA

Hamburg-Finkenwerder, Germany (EDHI) 53-32N 009-50E 13M
Sep 27, 2021 - 04:20 AM EDT / 2021.09.27 0820 UTC
Wind: from the S (170 degrees) at 3 MPH (3 KT) (direction variable):0
Visibility: 2 mile(s):0
Sky conditions: mostly cloudy
Weather: mist
Temperature: 64 F (18 C)
Dew Point: 64 F (18 C)
Relative Humidity: 100%
Pressure (altimeter): 29.94 in. Hg (1014 hPa)
ob: EDHI 270820Z 17003KT 120V220 4500 BR BKN008 18/18 Q1014
cycle: 8

Station Type Date Time Source
EDHI TAF 2010/02/22 14:20 UTC NOAA

METAR EDHI 221420Z 17005KT 9999 BKN030 05/02 Q0989

Example: see airport list